Time,TemperatureF,DewpointF,PressureIn,WindDirection,WindDirectionDegrees,WindSpeedMPH,WindSpeedGustMPH,Humidity,HourlyPrecipIn,Conditions,Clouds,dailyrainin,SoftwareType,DateUTC
2013-01-23 00:04:00,-11.0,-17.4,29.96,West,270,0.0,2.0,73,0.00,,,0.00,WUHU21623XXSP,2013-01-23 06:04:00,
2013-01-23 00:09:00,-11.4,-17.8,29.96,West,270,0.0,0.0,73,0.00,,,0.00,WUHU21623XXSP,2013-01-23 06:09:00,
2013-01-23 00:14:00,-11.4,-17.5,29.96,West,270,0.0,0.0,74,0.00,,,0.00,WUHU21623XXSP,2013-01-23 06:14:00,
2013-01-23 00:19:00,-11.4,-17.8,29.96,West,270,0.0,0.7,73,0.00,,,0.00,WUHU21623XXSP,2013-01-23 06:19:00,
2013-01-23 00:24:00,-11.6,-17.9,29.95,West,270,0.0,0.7,73,0.00,,,0.00,WUHU21623XXSP,2013-01-23 06:24:00,
2013-01-23 00:29:00,-11.0,-17.1,29.96,West,270,0.0,0.0,74,0.00,,,0.00,WUHU21623XXSP,2013-01-23 06:29:00,
2013-01-23 00:34:00,-11.4,-17.8,29.95,West,270,0.0,0.0,73,0.00,,,0.00,WUHU21623XXSP,2013-01-23 06:34:00,
2013-01-23 00:39:00,-11.6,-17.7,29.95,WSW,247,0.0,0.0,74,0.00,,,0.00,WUHU21623XXSP,2013-01-23 06:39:00,
2013-01-23 00:44:00,-11.4,-17.5,29.95,South,180,1.6,2.9,74,0.00,,,0.00,WUHU21623XXSP,2013-01-23 06:44:00,
2013-01-23 00:49:00,-11.6,-17.7,29.94,South,180,1.3,3.8,74,0.00,,,0.00,WUHU21623XXSP,2013-01-23 06:49:00,
2013-01-23 00:54:00,-11.6,-17.7,29.94,SSW,202,1.7,4.0,74,0.00,,,0.00,WUHU21623XXSP,2013-01-23 06:54:00,
2013-01-23 00:59:00,-11.6,-17.7,29.94,SSW,202,0.0,4.0,74,0.00,,,0.00,WUHU21623XXSP,2013-01-23 06:59:00,
2013-01-23 01:04:00,-11.6,-17.7,29.94,SSW,202,0.0,2.7,74,0.00,,,0.00,WUHU21623XXSP,2013-01-23 07:04:00,
2013-01-23 01:09:00,-11.6,-17.7,29.94,SSW,202,0.4,0.4,74,0.00,,,0.00,WUHU21623XXSP,2013-01-23 07:09:00,
2013-01-23 01:14:00,-11.9,-18.0,29.93,SSW,202,1.9,3.1,74,0.00,,,0.00,WUHU21623XXSP,2013-01-23 07:14:00,
2013-01-23 01:19:00,-11.9,-18.0,29.93,SSW,202,3.6,3.6,74,0.00,,,0.00,WUHU21623XXSP,2013-01-23 07:19:00,
2013-01-23 01:24:00,-11.7,-17.8,29.93,SSW,202,1.4,3.6,74,0.00,,,0.00,WUHU21623XXSP,2013-01-23 07:24:00,
2013-01-23 01:29:00,-11.6,-17.4,29.93,SW,225,0.1,3.4,75,0.00,,,0.00,WUHU21623XXSP,2013-01-23 07:29:00,
2013-01-23 01:34:00,-11.4,-17.5,29.94,SW,225,0.6,3.4,74,0.00,,,0.00,WUHU21623XXSP,2013-01-23 07:34:00,
2013-01-23 01:39:00,-11.4,-17.5,29.94,SW,225,0.0,2.2,74,0.00,,,0.00,WUHU21623XXSP,2013-01-23 07:39:00,
2013-01-23 01:44:00,-11.4,-17.5,29.93,SW,225,0.1,1.8,74,0.00,,,0.00,WUHU21623XXSP,2013-01-23 07:44:00,
2013-01-23 01:49:00,-11.9,-18.0,29.93,SW,225,0.0,1.1,74,0.00,,,0.00,WUHU21623XXSP,2013-01-23 07:49:00,
2013-01-23 01:54:00,-11.6,-17.7,29.93,SSW,202,0.0,1.6,74,0.00,,,0.00,WUHU21623XXSP,2013-01-23 07:54:00,
2013-01-23 01:59:00,-11.4,-17.5,29.93,SSW,202,0.0,1.6,74,0.00,,,0.00,WUHU21623XXSP,2013-01-23 07:59:00,
2013-01-23 02:04:00,-11.4,-17.5,29.93,SSW,202,0.0,0.0,74,0.00,,,0.00,WUHU21623XXSP,2013-01-23 08:04:00,
2013-01-23 02:09:00,-11.4,-17.5,29.93,SSW,202,0.0,0.0,74,0.00,,,0.00,WUHU21623XXSP,2013-01-23 08:09:00,
2013-01-23 02:14:00,-12.1,-18.2,29.93,SSW,202,2.0,2.0,74,0.00,,,0.00,WUHU21623XXSP,2013-01-23 08:14:00,
2013-01-23 02:19:00,-12.3,-18.3,29.93,South,180,3.4,3.4,74,0.00,,,0.00,WUHU21623XXSP,2013-01-23 08:19:00,
2013-01-23 02:24:00,-11.9,-18.0,29.93,South,180,1.7,3.4,74,0.00,,,0.00,WUHU21623XXSP,2013-01-23 08:24:00,
2013-01-23 02:29:00,-11.6,-17.4,29.93,South,180,0.8,3.4,75,0.00,,,0.00,WUHU21623XXSP,2013-01-23 08:29:00,
2013-01-23 02:34:00,-11.6,-17.4,29.93,South,180,2.0,3.1,75,0.00,,,0.00,WUHU21623XXSP,2013-01-23 08:34:00,
2013-01-23 02:39:00,-11.6,-17.4,29.93,South,180,1.3,2.5,75,0.00,,,0.00,WUHU21623XXSP,2013-01-23 08:39:00,
2013-01-23 02:44:00,-11.6,-17.4,29.93,SSW,194,1.1,2.7,75,0.00,,,0.00,WUHU21623XXSP,2013-01-23 08:44:00,
2013-01-23 02:49:00,-11.4,-17.2,29.94,South,180,0.4,2.9,75,0.00,,,0.00,WUHU21623XXSP,2013-01-23 08:49:00,
2013-01-23 02:54:00,-11.4,-17.5,29.94,SW,225,3.6,3.6,74,0.00,,,0.00,WUHU21623XXSP,2013-01-23 08:54:00,
2013-01-23 02:59:00,-11.6,-17.4,29.93,SW,225,0.2,3.6,75,0.00,,,0.00,WUHU21623XXSP,2013-01-23 08:59:00,
2013-01-23 03:04:00,-11.4,-17.2,29.93,SSW,202,1.1,3.6,75,0.00,,,0.00,WUHU21623XXSP,2013-01-23 09:04:00,
2013-01-23 03:09:00,-11.4,-17.2,29.93,SSW,202,0.0,1.3,75,0.00,,,0.00,WUHU21623XXSP,2013-01-23 09:09:00,
2013-01-23 03:14:00,-11.0,-16.9,29.93,SSW,202,0.0,3.1,75,0.00,,,0.00,WUHU21623XXSP,2013-01-23 09:14:00,
2013-01-23 03:19:00,-11.0,-16.9,29.93,SW,225,0.2,3.1,75,0.00,,,0.00,WUHU21623XXSP,2013-01-23 09:19:00,
2013-01-23 03:24:00,-11.4,-17.2,29.93,SSW,202,1.1,3.1,75,0.00,,,0.00,WUHU21623XXSP,2013-01-23 09:24:00,
2013-01-23 03:29:00,-11.4,-17.2,29.93,SSW,195,2.4,3.4,75,0.00,,,0.00,WUHU21623XXSP,2013-01-23 09:29:00,
2013-01-23 03:34:00,-10.8,-16.7,29.93,SW,225,0.7,3.4,75,0.00,,,0.00,WUHU21623XXSP,2013-01-23 09:34:00,
2013-01-23 03:39:00,-10.7,-16.5,29.93,SW,225,2.0,4.5,75,0.00,,,0.00,WUHU21623XXSP,2013-01-23 09:39:00,
2013-01-23 03:44:00,-10.8,-16.7,29.93,SSW,202,1.0,4.5,75,0.00,,,0.00,WUHU21623XXSP,2013-01-23 09:44:00,
2013-01-23 03:49:00,-10.8,-16.7,29.92,SSW,202,1.1,2.9,75,0.00,,,0.00,WUHU21623XXSP,2013-01-23 09:49:00,
2013-01-23 03:54:00,-10.7,-16.5,29.93,SSW,202,3.1,4.0,75,0.00,,,0.00,WUHU21623XXSP,2013-01-23 09:54:00,
2013-01-23 03:59:00,-10.5,-16.3,29.92,SSE,157,3.1,4.0,75,0.00,,,0.00,WUHU21623XXSP,2013-01-23 09:59:00,
2013-01-23 04:04:00,-10.3,-16.1,29.92,SSE,157,0.7,3.6,75,0.00,,,0.00,WUHU21623XXSP,2013-01-23 10:04:00,
2013-01-23 04:09:00,-10.1,-16.0,29.92,SSE,157,0.1,2.2,75,0.00,,,0.00,WUHU21623XXSP,2013-01-23 10:09:00,
2013-01-23 04:14:00,-9.6,-15.4,29.92,SSE,157,0.0,1.3,75,0.00,,,0.00,WUHU21623XXSP,2013-01-23 10:14:00,
2013-01-23 04:19:00,-9.8,-15.6,29.92,WSW,247,3.6,3.6,75,0.00,,,0.00,WUHU21623XXSP,2013-01-23 10:19:00,
2013-01-23 04:24:00,-9.8,-15.6,29.91,SW,225,0.0,3.6,75,0.00,,,0.00,WUHU21623XXSP,2013-01-23 10:24:00,
2013-01-23 04:29:00,-9.6,-15.4,29.91,SW,225,0.9,3.6,75,0.00,,,0.00,WUHU21623XXSP,2013-01-23 10:29:00,
2013-01-23 04:34:00,-9.4,-15.3,29.91,SSW,202,2.0,5.1,75,0.00,,,0.00,WUHU21623XXSP,2013-01-23 10:34:00,
2013-01-23 04:39:00,-9.2,-15.1,29.91,SSW,202,3.1,5.1,75,0.00,,,0.00,WUHU21623XXSP,2013-01-23 10:39:00,
2013-01-23 04:44:00,-8.9,-14.5,29.91,WSW,247,2.5,4.7,76,0.00,,,0.00,WUHU21623XXSP,2013-01-23 10:44:00,
2013-01-23 04:49:00,-8.3,-14.0,29.91,WSW,247,0.1,4.7,76,0.00,,,0.00,WUHU21623XXSP,2013-01-23 10:49:00,
2013-01-23 04:54:00,-8.3,-14.2,29.91,West,270,3.4,4.7,75,0.00,,,0.00,WUHU21623XXSP,2013-01-23 10:54:00,
2013-01-23 04:59:00,-7.8,-13.7,29.91,SW,225,0.1,3.4,75,0.00,,,0.00,WUHU21623XXSP,2013-01-23 10:59:00,
2013-01-23 05:04:00,-7.4,-13.4,29.91,West,270,1.4,3.4,75,0.00,,,0.00,WUHU21623XXSP,2013-01-23 11:04:00,
2013-01-23 05:09:00,-7.8,-13.7,29.91,West,270,0.2,2.5,75,0.00,,,0.00,WUHU21623XXSP,2013-01-23 11:09:00,
2013-01-23 05:14:00,-7.8,-13.7,29.91,West,270,1.1,3.6,75,0.00,,,0.00,WUHU21623XXSP,2013-01-23 11:14:00,
2013-01-23 05:19:00,-8.0,-13.9,29.91,West,270,0.9,3.6,76,0.00,,,0.00,WUHU21623XXSP,2013-01-23 11:19:00,
2013-01-23 05:24:00,-8.0,-13.6,29.90,WSW,247,0.7,2.5,76,0.00,,,0.00,WUHU21623XXSP,2013-01-23 11:24:00,
2013-01-23 05:29:00,-8.0,-13.9,29.90,WSW,247,0.2,2.7,75,0.00,,,0.00,WUHU21623XXSP,2013-01-23 11:29:00,
2013-01-23 05:34:00,-8.0,-13.6,29.90,WSW,247,0.1,2.7,76,0.00,,,0.00,WUHU21623XXSP,2013-01-23 11:34:00,
2013-01-23 05:39:00,-7.4,-12.9,29.90,NNW,337,0.3,2.5,76,0.00,,,0.00,WUHU21623XXSP,2013-01-23 11:39:00,
2013-01-23 05:44:00,-7.4,-13.1,29.90,WSW,247,0.0,2.5,76,0.00,,,0.00,WUHU21623XXSP,2013-01-23 11:44:00,
2013-01-23 05:49:00,-7.2,-12.9,29.90,WSW,247,0.0,0.9,76,0.00,,,0.00,WUHU21623XXSP,2013-01-23 11:49:00,
2013-01-23 05:54:00,-8.0,-13.9,29.90,WSW,247,0.0,1.3,75,0.00,,,0.00,WUHU21623XXSP,2013-01-23 11:54:00,
2013-01-23 05:59:00,-8.0,-13.6,29.90,WSW,247,0.7,1.3,76,0.00,,,0.00,WUHU21623XXSP,2013-01-23 11:59:00,
2013-01-23 06:04:00,-8.0,-13.6,29.90,WSW,247,0.1,1.1,76,0.00,,,0.00,WUHU21623XXSP,2013-01-23 12:04:00,
2013-01-23 06:09:00,-8.0,-13.6,29.90,WSW,247,0.1,1.1,76,0.00,,,0.00,WUHU21623XXSP,2013-01-23 12:09:00,
2013-01-23 06:14:00,-7.8,-13.5,29.90,WSW,247,0.0,1.1,76,0.00,,,0.00,WUHU21623XXSP,2013-01-23 12:14:00,
2013-01-23 06:19:00,-6.7,-11.9,29.89,WSW,247,0.0,0.7,78,0.00,,,0.00,WUHU21623XXSP,2013-01-23 12:19:00,
2013-01-23 06:24:00,-7.1,-12.5,29.89,WSW,247,0.0,0.7,77,0.00,,,0.00,WUHU21623XXSP,2013-01-23 12:24:00,
2013-01-23 06:29:00,-7.4,-13.1,29.90,WSW,247,0.0,0.0,76,0.00,,,0.00,WUHU21623XXSP,2013-01-23 12:29:00,
2013-01-23 06:34:00,-7.8,-13.5,29.90,WSW,247,0.0,0.0,76,0.00,,,0.00,WUHU21623XXSP,2013-01-23 12:34:00,
2013-01-23 06:39:00,-7.8,-13.5,29.89,WSW,247,0.0,0.0,76,0.00,,,0.00,WUHU21623XXSP,2013-01-23 12:39:00,
2013-01-23 06:44:00,-8.5,-14.1,29.89,WSW,247,0.0,0.0,76,0.00,,,0.00,WUHU21623XXSP,2013-01-23 12:44:00,
2013-01-23 06:49:00,-8.7,-14.3,29.89,WSW,247,0.0,0.0,76,0.00,,,0.00,WUHU21623XXSP,2013-01-23 12:49:00,
2013-01-23 06:54:00,-8.3,-14.0,29.89,WSW,247,0.0,0.4,76,0.00,,,0.00,WUHU21623XXSP,2013-01-23 12:54:00,
2013-01-23 06:59:00,-7.8,-13.5,29.89,WSW,240,1.2,2.5,76,0.00,,,0.00,WUHU21623XXSP,2013-01-23 12:59:00,
2013-01-23 07:04:00,-7.8,-13.5,29.89,SW,225,0.0,2.5,76,0.00,,,0.00,WUHU21623XXSP,2013-01-23 13:04:00,
2013-01-23 07:09:00,-7.8,-13.5,29.89,SW,225,0.1,2.5,76,0.00,,,0.00,WUHU21623XXSP,2013-01-23 13:09:00,
2013-01-23 07:14:00,-7.4,-13.1,29.89,WSW,237,1.1,2.2,76,0.00,,,0.00,WUHU21623XXSP,2013-01-23 13:14:00,
2013-01-23 07:19:00,-7.2,-12.9,29.89,WSW,247,0.0,3.4,76,0.00,,,0.00,WUHU21623XXSP,2013-01-23 13:19:00,
2013-01-23 07:24:00,-7.4,-13.1,29.88,WSW,247,0.0,3.4,76,0.00,,,0.00,WUHU21623XXSP,2013-01-23 13:24:00,
2013-01-23 07:29:00,-7.4,-13.1,29.88,SW,225,0.2,1.8,76,0.00,,,0.00,WUHU21623XXSP,2013-01-23 13:29:00,
2013-01-23 07:34:00,-7.8,-13.5,29.88,SW,225,0.1,2.9,76,0.00,,,0.00,WUHU21623XXSP,2013-01-23 13:34:00,
2013-01-23 07:39:00,-7.4,-13.1,29.88,SW,225,0.0,4.0,76,0.00,,,0.00,WUHU21623XXSP,2013-01-23 13:39:00,
2013-01-23 07:44:00,-7.8,-13.5,29.88,SW,225,0.9,4.0,76,0.00,,,0.00,WUHU21623XXSP,2013-01-23 13:44:00,
2013-01-23 07:49:00,-7.4,-13.1,29.88,SW,225,0.5,2.9,76,0.00,,,0.00,WUHU21623XXSP,2013-01-23 13:49:00,
2013-01-23 07:54:00,-7.1,-12.8,29.88,SW,225,0.0,2.9,76,0.00,,,0.00,WUHU21623XXSP,2013-01-23 13:54:00,
2013-01-23 07:59:00,-7.4,-13.1,29.88,SW,225,0.0,0.2,76,0.00,,,0.00,WUHU21623XXSP,2013-01-23 13:59:00,
2013-01-23 08:04:00,-7.4,-13.1,29.88,SW,225,0.0,0.2,76,0.00,,,0.00,WUHU21623XXSP,2013-01-23 14:04:00,
2013-01-23 08:09:00,-7.4,-13.1,29.88,SW,225,0.0,0.0,76,0.00,,,0.00,WUHU21623XXSP,2013-01-23 14:09:00,
2013-01-23 08:14:00,-6.9,-12.6,29.89,SW,225,0.0,0.9,76,0.00,,,0.00,WUHU21623XXSP,2013-01-23 14:14:00,
2013-01-23 08:19:00,-7.1,-12.8,29.89,SW,225,0.2,1.3,76,0.00,,,0.00,WUHU21623XXSP,2013-01-23 14:19:00,
2013-01-23 08:24:00,-7.1,-13.0,29.89,SW,225,0.0,1.3,75,0.00,,,0.00,WUHU21623XXSP,2013-01-23 14:24:00,
2013-01-23 08:29:00,-6.7,-12.6,29.89,SW,225,0.0,3.6,76,0.00,,,0.00,WUHU21623XXSP,2013-01-23 14:29:00,
2013-01-23 08:34:00,-6.3,-12.1,29.89,WSW,247,1.1,3.6,76,0.00,,,0.00,WUHU21623XXSP,2013-01-23 14:34:00,
2013-01-23 08:39:00,-4.9,-9.9,29.88,WSW,247,0.2,1.6,79,0.00,,,0.00,WUHU21623XXSP,2013-01-23 14:39:00,
2013-01-23 08:44:00,-5.3,-10.8,29.88,West,270,1.8,2.2,77,0.00,,,0.00,WUHU21623XXSP,2013-01-23 14:44:00,
2013-01-23 08:49:00,-4.7,-9.7,29.88,West,270,1.3,2.5,79,0.00,,,0.00,WUHU21623XXSP,2013-01-23 14:49:00,
2013-01-23 08:54:00,-5.1,-10.6,29.89,West,276,2.1,3.1,77,0.00,,,0.00,WUHU21623XXSP,2013-01-23 14:54:00,
2013-01-23 08:59:00,-5.3,-10.8,29.88,WNW,285,3.0,4.7,77,0.00,,,0.00,WUHU21623XXSP,2013-01-23 14:59:00,
2013-01-23 09:04:00,-5.3,-10.8,29.89,WNW,292,5.4,5.4,77,0.00,,,0.00,WUHU21623XXSP,2013-01-23 15:04:00,
2013-01-23 09:09:00,-4.7,-9.9,29.89,West,270,3.8,6.7,78,0.00,,,0.00,WUHU21623XXSP,2013-01-23 15:09:00,
2013-01-23 09:14:00,-4.7,-10.2,29.89,WNW,301,3.8,6.7,77,0.00,,,0.00,WUHU21623XXSP,2013-01-23 15:14:00,
2013-01-23 09:19:00,-4.7,-10.2,29.89,WNW,295,2.7,6.7,77,0.00,,,0.00,WUHU21623XXSP,2013-01-23 15:19:00,
2013-01-23 09:24:00,-4.2,-9.7,29.90,WNW,299,5.0,11.4,77,0.00,,,0.00,WUHU21623XXSP,2013-01-23 15:24:00,
2013-01-23 09:29:00,-3.6,-9.1,29.89,WNW,288,7.4,16.6,77,0.00,,,0.00,WUHU21623XXSP,2013-01-23 15:29:00,
2013-01-23 09:34:00,-3.3,-9.0,29.89,NW,313,6.5,16.6,76,0.00,,,0.00,WUHU21623XXSP,2013-01-23 15:34:00,
2013-01-23 09:39:00,-3.1,-8.9,29.90,WNW,292,13.0,17.7,76,0.00,,,0.00,WUHU21623XXSP,2013-01-23 15:39:00,
2013-01-23 09:44:00,-2.9,-8.7,29.90,WNW,292,15.4,17.7,76,0.00,,,0.00,WUHU21623XXSP,2013-01-23 15:44:00,
2013-01-23 09:49:00,-3.3,-9.3,29.90,WNW,299,8.6,16.1,75,0.00,,,0.00,WUHU21623XXSP,2013-01-23 15:49:00,
2013-01-23 09:54:00,-3.1,-9.1,29.91,WNW,302,7.6,16.1,75,0.00,,,0.00,WUHU21623XXSP,2013-01-23 15:54:00,
2013-01-23 09:59:00,-3.1,-9.1,29.91,WNW,298,7.3,13.6,75,0.00,,,0.00,WUHU21623XXSP,2013-01-23 15:59:00,
2013-01-23 10:04:00,-3.1,-9.1,29.91,NW,307,8.2,15.2,75,0.00,,,0.00,WUHU21623XXSP,2013-01-23 16:04:00,
2013-01-23 10:09:00,-2.9,-9.0,29.91,NW,315,13.4,15.2,75,0.00,,,0.00,WUHU21623XXSP,2013-01-23 16:09:00,
2013-01-23 10:14:00,-2.4,-8.4,29.92,WNW,299,10.1,19.0,75,0.00,,,0.00,WUHU21623XXSP,2013-01-23 16:14:00,
2013-01-23 10:19:00,-2.4,-8.7,29.93,WNW,292,11.0,19.0,74,0.00,,,0.00,WUHU21623XXSP,2013-01-23 16:19:00,
2013-01-23 10:24:00,-3.3,-9.9,29.92,WNW,294,5.7,17.4,73,0.00,,,0.00,WUHU21623XXSP,2013-01-23 16:24:00,
2013-01-23 10:29:00,-3.3,-9.9,29.93,WNW,303,8.4,21.9,73,0.00,,,0.00,WUHU21623XXSP,2013-01-23 16:29:00,
2013-01-23 10:34:00,-3.3,-9.9,29.93,NW,311,8.8,21.9,73,0.00,,,0.00,WUHU21623XXSP,2013-01-23 16:34:00,
2013-01-23 10:39:00,-2.9,-9.8,29.93,WNW,292,11.6,15.2,72,0.00,,,0.00,WUHU21623XXSP,2013-01-23 16:39:00,
2013-01-23 10:44:00,-3.3,-10.1,29.94,NNW,337,15.7,15.7,72,0.00,,,0.00,WUHU21623XXSP,2013-01-23 16:44:00,
2013-01-23 10:49:00,-3.3,-10.1,29.94,NW,312,9.4,16.6,72,0.00,,,0.00,WUHU21623XXSP,2013-01-23 16:49:00,
2013-01-23 10:54:00,-3.3,-10.1,29.94,NW,315,9.3,16.6,72,0.00,,,0.00,WUHU21623XXSP,2013-01-23 16:54:00,
2013-01-23 10:59:00,-3.6,-10.5,29.94,NW,315,9.6,15.9,72,0.00,,,0.00,WUHU21623XXSP,2013-01-23 16:59:00,
2013-01-23 11:04:00,-3.8,-10.9,29.95,WNW,292,13.2,19.9,71,0.00,,,0.00,WUHU21623XXSP,2013-01-23 17:04:00,
2013-01-23 11:09:00,-4.2,-11.6,29.95,NW,310,9.8,22.6,70,0.00,,,0.00,WUHU21623XXSP,2013-01-23 17:09:00,
2013-01-23 11:14:00,-4.0,-11.0,29.95,WNW,303,10.2,22.6,71,0.00,,,0.00,WUHU21623XXSP,2013-01-23 17:14:00,
2013-01-23 11:19:00,-4.2,-11.9,29.96,WNW,294,8.7,19.9,69,0.00,,,0.00,WUHU21623XXSP,2013-01-23 17:19:00,
2013-01-23 11:24:00,-4.2,-11.6,29.96,WNW,299,9.1,19.9,70,0.00,,,0.00,WUHU21623XXSP,2013-01-23 17:24:00,
2013-01-23 11:29:00,-4.2,-11.6,29.96,WNW,296,7.3,20.6,70,0.00,,,0.00,WUHU21623XXSP,2013-01-23 17:29:00,
2013-01-23 11:34:00,-4.0,-11.4,29.96,NNW,337,8.1,20.6,70,0.00,,,0.00,WUHU21623XXSP,2013-01-23 17:34:00,
2013-01-23 11:39:00,-3.8,-11.5,29.97,WNW,287,8.1,19.9,69,0.00,,,0.00,WUHU21623XXSP,2013-01-23 17:39:00,
2013-01-23 11:44:00,-4.2,-12.2,29.97,NW,304,10.0,19.9,68,0.00,,,0.00,WUHU21623XXSP,2013-01-23 17:44:00,
2013-01-23 11:49:00,-4.2,-12.2,29.97,NW,315,9.8,20.1,68,0.00,,,0.00,WUHU21623XXSP,2013-01-23 17:49:00,
2013-01-23 11:54:00,-4.7,-12.7,29.97,West,270,11.6,20.1,68,0.00,,,0.00,WUHU21623XXSP,2013-01-23 17:54:00,
2013-01-23 11:59:00,-4.7,-12.4,29.98,WNW,301,10.4,23.7,69,0.00,,,0.00,WUHU21623XXSP,2013-01-23 17:59:00,
2013-01-23 12:04:00,-4.7,-12.7,29.98,NW,315,11.9,23.7,68,0.00,,,0.00,WUHU21623XXSP,2013-01-23 18:04:00,
2013-01-23 12:09:00,-4.4,-12.0,29.98,NNW,337,9.4,22.4,69,0.00,,,0.00,WUHU21623XXSP,2013-01-23 18:09:00,
2013-01-23 12:14:00,-4.4,-13.0,29.98,NW,308,10.8,16.1,66,0.00,,,0.00,WUHU21623XXSP,2013-01-23 18:14:00,
2013-01-23 12:19:00,-4.7,-13.3,29.98,WNW,292,18.8,18.8,66,0.00,,,0.00,WUHU21623XXSP,2013-01-23 18:19:00,
2013-01-23 12:24:00,-4.9,-13.2,29.99,WNW,292,15.7,18.8,67,0.00,,,0.00,WUHU21623XXSP,2013-01-23 18:24:00,
2013-01-23 12:29:00,-5.3,-13.1,29.99,WNW,298,11.5,17.2,68,0.00,,,0.00,WUHU21623XXSP,2013-01-23 18:29:00,
2013-01-23 12:34:00,-5.1,-13.1,29.99,NW,315,8.9,23.0,68,0.00,,,0.00,WUHU21623XXSP,2013-01-23 18:34:00,
2013-01-23 12:39:00,-5.3,-13.3,29.99,NW,307,9.8,23.0,68,0.00,,,0.00,WUHU21623XXSP,2013-01-23 18:39:00,
2013-01-23 12:44:00,-5.4,-13.7,30.00,NW,309,12.1,20.8,67,0.00,,,0.00,WUHU21623XXSP,2013-01-23 18:44:00,
2013-01-23 12:49:00,-5.4,-13.7,30.00,NW,315,16.6,16.6,67,0.00,,,0.00,WUHU21623XXSP,2013-01-23 18:49:00,
2013-01-23 12:54:00,-5.3,-14.2,30.01,NW,321,9.8,16.6,65,0.00,,,0.00,WUHU21623XXSP,2013-01-23 18:54:00,
2013-01-23 12:59:00,-5.4,-14.7,30.01,NW,310,7.3,19.7,64,0.00,,,0.00,WUHU21623XXSP,2013-01-23 18:59:00,
2013-01-23 13:04:00,-6.0,-15.2,30.01,NNW,337,13.0,19.7,64,0.00,,,0.00,WUHU21623XXSP,2013-01-23 19:04:00,
2013-01-23 13:09:00,-6.2,-15.3,30.02,WNW,297,8.6,16.8,64,0.00,,,0.00,WUHU21623XXSP,2013-01-23 19:09:00,
2013-01-23 13:14:00,-5.8,-14.9,30.03,NW,315,9.8,13.2,65,0.00,,,0.00,WUHU21623XXSP,2013-01-23 19:14:00,
2013-01-23 13:19:00,-5.4,-14.7,30.03,NW,312,9.9,17.7,64,0.00,,,0.00,WUHU21623XXSP,2013-01-23 19:19:00,
2013-01-23 13:24:00,-5.6,-14.4,30.03,WNW,290,9.0,17.7,65,0.00,,,0.00,WUHU21623XXSP,2013-01-23 19:24:00,
2013-01-23 13:29:00,-6.0,-14.9,30.03,NW,315,17.7,17.7,65,0.00,,,0.00,WUHU21623XXSP,2013-01-23 19:29:00,
2013-01-23 13:34:00,-6.0,-15.2,30.04,WNW,301,10.5,20.1,64,0.00,,,0.00,WUHU21623XXSP,2013-01-23 19:34:00,
2013-01-23 13:39:00,-6.0,-15.2,30.04,NW,315,11.0,20.1,64,0.00,,,0.00,WUHU21623XXSP,2013-01-23 19:39:00,
2013-01-23 13:44:00,-5.4,-14.4,30.04,NW,317,6.2,16.8,65,0.00,,,0.00,WUHU21623XXSP,2013-01-23 19:44:00,
2013-01-23 13:49:00,-5.8,-15.0,30.05,NW,305,11.7,20.6,64,0.00,,,0.00,WUHU21623XXSP,2013-01-23 19:49:00,
2013-01-23 13:54:00,-6.0,-15.5,30.05,WNW,300,8.7,20.6,63,0.00,,,0.00,WUHU21623XXSP,2013-01-23 19:54:00,
2013-01-23 13:59:00,-6.2,-15.3,30.06,WNW,292,17.0,19.2,64,0.00,,,0.00,WUHU21623XXSP,2013-01-23 19:59:00,
2013-01-23 14:04:00,-6.5,-15.7,30.07,WNW,296,8.4,17.0,64,0.00,,,0.00,WUHU21623XXSP,2013-01-23 20:04:00,
2013-01-23 14:09:00,-6.3,-15.2,30.07,NW,307,9.5,15.4,64,0.00,,,0.00,WUHU21623XXSP,2013-01-23 20:09:00,
2013-01-23 14:14:00,-6.0,-15.5,30.08,NW,316,10.7,15.2,63,0.00,,,0.00,WUHU21623XXSP,2013-01-23 20:14:00,
2013-01-23 14:19:00,-6.2,-15.3,30.09,NW,305,12.0,17.2,64,0.00,,,0.00,WUHU21623XXSP,2013-01-23 20:19:00,
2013-01-23 14:24:00,-6.2,-15.3,30.09,WNW,292,7.2,17.2,64,0.00,,,0.00,WUHU21623XXSP,2013-01-23 20:24:00,
2013-01-23 14:29:00,-6.2,-15.2,30.09,West,270,17.4,17.4,64,0.00,,,0.00,WUHU21623XXSP,2013-01-23 20:29:00,
2013-01-23 14:34:00,-6.3,-15.5,30.10,WNW,296,9.0,19.5,64,0.00,,,0.00,WUHU21623XXSP,2013-01-23 20:34:00,
2013-01-23 14:39:00,-6.0,-14.9,30.11,WNW,292,12.1,19.5,65,0.00,,,0.00,WUHU21623XXSP,2013-01-23 20:39:00,
2013-01-23 14:44:00,-6.2,-15.0,30.11,NNW,337,12.5,12.8,65,0.00,,,0.00,WUHU21623XXSP,2013-01-23 20:44:00,
2013-01-23 14:49:00,-6.7,-15.8,30.11,NNW,337,15.2,18.8,64,0.00,,,0.00,WUHU21623XXSP,2013-01-23 20:49:00,
2013-01-23 14:54:00,-6.5,-15.4,30.12,North,0,13.4,18.8,65,0.00,,,0.00,WUHU21623XXSP,2013-01-23 20:54:00,
2013-01-23 14:59:00,-6.9,-16.0,30.12,NW,311,11.6,17.7,64,0.00,,,0.00,WUHU21623XXSP,2013-01-23 20:59:00,
2013-01-23 15:04:00,-6.9,-15.7,30.12,NW,315,10.7,17.7,65,0.00,,,0.00,WUHU21623XXSP,2013-01-23 21:04:00,
2013-01-23 15:09:00,-7.1,-16.5,30.13,WNW,303,12.2,18.3,63,0.00,,,0.00,WUHU21623XXSP,2013-01-23 21:09:00,
2013-01-23 15:14:00,-6.9,-16.0,30.13,WNW,292,19.7,19.7,64,0.00,,,0.00,WUHU21623XXSP,2013-01-23 21:14:00,
2013-01-23 15:19:00,-6.9,-16.0,30.13,WNW,303,9.4,19.7,64,0.00,,,0.00,WUHU21623XXSP,2013-01-23 21:19:00,
2013-01-23 15:24:00,-6.9,-15.7,30.14,NW,307,8.6,15.4,65,0.00,,,0.00,WUHU21623XXSP,2013-01-23 21:24:00,
2013-01-23 15:29:00,-7.1,-16.1,30.15,NNW,331,8.3,15.0,64,0.00,,,0.00,WUHU21623XXSP,2013-01-23 21:29:00,
2013-01-23 15:34:00,-7.2,-16.3,30.15,NNW,341,7.7,17.0,64,0.00,,,0.00,WUHU21623XXSP,2013-01-23 21:34:00,
2013-01-23 15:39:00,-7.4,-16.5,30.15,NW,320,6.5,17.0,64,0.00,,,0.00,WUHU21623XXSP,2013-01-23 21:39:00,
2013-01-23 15:44:00,-7.6,-16.6,30.16,WNW,292,11.6,18.6,64,0.00,,,0.00,WUHU21623XXSP,2013-01-23 21:44:00,
2013-01-23 15:49:00,-7.8,-16.8,30.17,NW,315,10.5,18.6,64,0.00,,,0.00,WUHU21623XXSP,2013-01-23 21:49:00,
2013-01-23 15:54:00,-7.8,-16.5,30.17,NW,314,6.0,12.5,65,0.00,,,0.00,WUHU21623XXSP,2013-01-23 21:54:00,
2013-01-23 15:59:00,-7.8,-16.5,30.17,WNW,303,5.8,12.5,65,0.00,,,0.00,WUHU21623XXSP,2013-01-23 21:59:00,
2013-01-23 16:04:00,-7.8,-16.7,30.18,NNW,337,6.7,12.5,64,0.00,,,0.00,WUHU21623XXSP,2013-01-23 22:04:00,
2013-01-23 16:09:00,-8.0,-17.0,30.18,NW,320,7.6,12.5,64,0.00,,,0.00,WUHU21623XXSP,2013-01-23 22:09:00,
2013-01-23 16:14:00,-8.3,-16.7,30.19,NNW,337,7.4,11.6,66,0.00,,,0.00,WUHU21623XXSP,2013-01-23 22:14:00,
2013-01-23 16:19:00,-8.3,-16.7,30.19,NW,315,6.9,10.3,66,0.00,,,0.00,WUHU21623XXSP,2013-01-23 22:19:00,
2013-01-23 16:24:00,-8.3,-17.1,30.19,WNW,292,7.2,11.0,65,0.00,,,0.00,WUHU21623XXSP,2013-01-23 22:24:00,
2013-01-23 16:29:00,-8.3,-16.7,30.19,NW,308,4.4,11.0,66,0.00,,,0.00,WUHU21623XXSP,2013-01-23 22:29:00,
2013-01-23 16:34:00,-8.5,-16.6,30.20,NW,315,7.4,9.4,67,0.00,,,0.00,WUHU21623XXSP,2013-01-23 22:34:00,
2013-01-23 16:39:00,-8.5,-16.6,30.20,NW,315,5.8,11.0,67,0.00,,,0.00,WUHU21623XXSP,2013-01-23 22:39:00,
2013-01-23 16:44:00,-8.7,-16.5,30.20,NW,315,5.1,11.0,68,0.00,,,0.00,WUHU21623XXSP,2013-01-23 22:44:00,
2013-01-23 16:49:00,-8.9,-16.7,30.21,NW,315,8.5,8.5,68,0.00,,,0.00,WUHU21623XXSP,2013-01-23 22:49:00,
2013-01-23 16:54:00,-8.7,-16.5,30.21,NW,315,5.1,10.1,68,0.00,,,0.00,WUHU21623XXSP,2013-01-23 22:54:00,
2013-01-23 16:59:00,-8.5,-16.6,30.22,NW,318,9.4,11.2,67,0.00,,,0.00,WUHU21623XXSP,2013-01-23 22:59:00,
2013-01-23 17:04:00,-8.7,-16.5,30.21,NW,315,4.9,11.2,68,0.00,,,0.00,WUHU21623XXSP,2013-01-23 23:04:00,
2013-01-23 17:09:00,-9.0,-16.9,30.22,NW,315,5.6,8.7,68,0.00,,,0.00,WUHU21623XXSP,2013-01-23 23:09:00,
2013-01-23 17:14:00,-9.0,-16.9,30.22,NW,315,4.9,8.3,68,0.00,,,0.00,WUHU21623XXSP,2013-01-23 23:14:00,
2013-01-23 17:19:00,-9.4,-16.9,30.22,NW,315,4.9,9.2,69,0.00,,,0.00,WUHU21623XXSP,2013-01-23 23:19:00,
2013-01-23 17:24:00,-9.6,-17.1,30.22,NW,306,5.3,9.2,69,0.00,,,0.00,WUHU21623XXSP,2013-01-23 23:24:00,
2013-01-23 17:29:00,-9.6,-17.1,30.22,NW,323,5.3,9.6,69,0.00,,,0.00,WUHU21623XXSP,2013-01-23 23:29:00,
2013-01-23 17:34:00,-9.8,-17.3,30.22,NW,315,4.5,11.0,69,0.00,,,0.00,WUHU21623XXSP,2013-01-23 23:34:00,
2013-01-23 17:39:00,-10.1,-17.6,30.23,NNW,337,7.4,11.0,69,0.00,,,0.00,WUHU21623XXSP,2013-01-23 23:39:00,
2013-01-23 17:44:00,-10.1,-17.4,30.23,NW,309,5.4,8.7,69,0.00,,,0.00,WUHU21623XXSP,2013-01-23 23:44:00,
2013-01-23 17:49:00,-10.1,-17.6,30.24,NW,315,5.8,8.7,69,0.00,,,0.00,WUHU21623XXSP,2013-01-23 23:49:00,
2013-01-23 17:54:00,-10.3,-17.8,30.24,NW,315,5.8,7.6,69,0.00,,,0.00,WUHU21623XXSP,2013-01-23 23:54:00,
2013-01-23 17:59:00,-10.3,-17.8,30.24,NW,315,5.8,7.2,69,0.00,,,0.00,WUHU21623XXSP,2013-01-23 23:59:00,
2013-01-23 18:04:00,-10.5,-18.0,30.24,NW,321,4.7,6.9,69,0.00,,,0.00,WUHU21623XXSP,2013-01-24 00:04:00,
2013-01-23 18:09:00,-10.7,-18.2,30.24,NW,319,4.2,7.2,69,0.00,,,0.00,WUHU21623XXSP,2013-01-24 00:09:00,
2013-01-23 18:14:00,-10.8,-18.3,30.25,NW,315,7.2,7.8,69,0.00,,,0.00,WUHU21623XXSP,2013-01-24 00:14:00,
2013-01-23 18:19:00,-11.0,-18.2,30.25,NW,315,5.6,8.3,70,0.00,,,0.00,WUHU21623XXSP,2013-01-24 00:19:00,
2013-01-23 18:25:00,-11.4,-18.6,30.26,NW,315,4.9,5.6,70,0.00,,,0.00,WUHU21623XXSP,2013-01-24 00:25:00,
2013-01-23 18:30:00,-11.4,-18.3,30.27,NNW,337,6.9,7.8,71,0.00,,,0.00,WUHU21623XXSP,2013-01-24 00:30:00,
2013-01-23 18:35:00,-11.4,-18.3,30.27,NW,315,5.1,7.8,71,0.00,,,0.00,WUHU21623XXSP,2013-01-24 00:35:00,
2013-01-23 18:40:00,-11.4,-18.3,30.27,WNW,300,5.4,7.8,71,0.00,,,0.00,WUHU21623XXSP,2013-01-24 00:40:00,
2013-01-23 18:45:00,-11.6,-18.5,30.27,NW,310,4.3,8.3,71,0.00,,,0.00,WUHU21623XXSP,2013-01-24 00:45:00,
2013-01-23 18:50:00,-11.9,-18.8,30.27,NW,308,4.4,8.3,71,0.00,,,0.00,WUHU21623XXSP,2013-01-24 00:50:00,
2013-01-23 18:55:00,-12.3,-19.1,30.29,NW,310,3.9,7.8,71,0.00,,,0.00,WUHU21623XXSP,2013-01-24 00:55:00,
2013-01-23 19:00:00,-12.5,-19.3,30.29,NW,315,6.7,7.6,71,0.00,,,0.00,WUHU21623XXSP,2013-01-24 01:00:00,
2013-01-23 19:05:00,-12.6,-19.4,30.30,WNW,303,4.0,7.6,71,0.00,,,0.00,WUHU21623XXSP,2013-01-24 01:05:00,
2013-01-23 19:10:00,-12.5,-19.0,30.30,WNW,299,4.9,9.2,72,0.00,,,0.00,WUHU21623XXSP,2013-01-24 01:10:00,
2013-01-23 19:15:00,-12.6,-19.4,30.30,NW,315,7.6,9.2,71,0.00,,,0.00,WUHU21623XXSP,2013-01-24 01:15:00,
2013-01-23 19:20:00,-13.0,-19.8,30.31,WNW,292,4.1,7.6,71,0.00,,,0.00,WUHU21623XXSP,2013-01-24 01:20:00,
2013-01-23 19:25:00,-13.2,-19.9,30.31,NW,315,5.1,6.5,71,0.00,,,0.00,WUHU21623XXSP,2013-01-24 01:25:00,
2013-01-23 19:30:00,-13.2,-19.7,30.31,NW,304,4.0,7.8,72,0.00,,,0.00,WUHU21623XXSP,2013-01-24 01:30:00,
2013-01-23 19:35:00,-13.0,-19.8,30.31,NW,315,4.7,7.8,71,0.00,,,0.00,WUHU21623XXSP,2013-01-24 01:35:00,
2013-01-23 19:40:00,-12.6,-18.9,30.31,NW,315,4.3,6.5,73,0.00,,,0.00,WUHU21623XXSP,2013-01-24 01:40:00,
2013-01-23 19:45:00,-12.8,-19.4,30.31,WNW,292,5.4,7.2,72,0.00,,,0.00,WUHU21623XXSP,2013-01-24 01:45:00,
2013-01-23 19:50:00,-12.8,-19.4,30.32,NW,315,4.5,7.4,72,0.00,,,0.00,WUHU21623XXSP,2013-01-24 01:50:00,
2013-01-23 19:55:00,-13.4,-20.1,30.32,NW,309,4.6,7.4,71,0.00,,,0.00,WUHU21623XXSP,2013-01-24 01:55:00,
2013-01-23 20:00:00,-13.5,-20.3,30.32,WNW,303,4.8,6.9,71,0.00,,,0.00,WUHU21623XXSP,2013-01-24 02:00:00,
2013-01-23 20:05:00,-13.5,-20.3,30.33,WNW,292,2.5,6.9,71,0.00,,,0.00,WUHU21623XXSP,2013-01-24 02:05:00,
2013-01-23 20:10:00,-14.1,-20.8,30.33,NW,315,4.0,7.4,71,0.00,,,0.00,WUHU21623XXSP,2013-01-24 02:10:00,
2013-01-23 20:15:00,-14.1,-20.8,30.33,NW,315,5.1,7.4,71,0.00,,,0.00,WUHU21623XXSP,2013-01-24 02:15:00,
2013-01-23 20:20:00,-14.1,-20.8,30.34,NW,318,4.7,7.6,71,0.00,,,0.00,WUHU21623XXSP,2013-01-24 02:20:00,
2013-01-23 20:25:00,-14.3,-21.0,30.34,NW,316,5.5,7.6,71,0.00,,,0.00,WUHU21623XXSP,2013-01-24 02:25:00,
2013-01-23 20:30:00,-14.6,-21.2,30.34,NW,313,4.7,7.6,71,0.00,,,0.00,WUHU21623XXSP,2013-01-24 02:30:00,
2013-01-23 20:35:00,-14.6,-21.4,30.34,NW,309,3.9,6.9,71,0.00,,,0.00,WUHU21623XXSP,2013-01-24 02:35:00,
2013-01-23 20:40:00,-15.0,-21.7,30.34,NW,315,3.4,6.3,71,0.00,,,0.00,WUHU21623XXSP,2013-01-24 02:40:00,
2013-01-23 20:45:00,-14.6,-21.1,30.34,WNW,301,4.6,5.6,72,0.00,,,0.00,WUHU21623XXSP,2013-01-24 02:45:00,
2013-01-23 20:50:00,-15.0,-21.5,30.34,NW,313,3.9,5.6,72,0.00,,,0.00,WUHU21623XXSP,2013-01-24 02:50:00,
2013-01-23 20:55:00,-15.0,-21.5,30.34,NW,315,4.5,6.0,72,0.00,,,0.00,WUHU21623XXSP,2013-01-24 02:55:00,
2013-01-23 21:00:00,-15.2,-21.7,30.34,WNW,299,3.8,6.0,72,0.00,,,0.00,WUHU21623XXSP,2013-01-24 03:00:00,
2013-01-23 21:05:00,-15.0,-21.5,30.34,WNW,292,3.4,4.9,72,0.00,,,0.00,WUHU21623XXSP,2013-01-24 03:05:00,
2013-01-23 21:10:00,-15.2,-21.7,30.35,NW,315,4.9,4.9,72,0.00,,,0.00,WUHU21623XXSP,2013-01-24 03:10:00,
2013-01-23 21:15:00,-15.5,-21.8,30.35,WNW,301,4.4,7.4,72,0.00,,,0.00,WUHU21623XXSP,2013-01-24 03:15:00,
2013-01-23 21:20:00,-15.7,-22.0,30.35,NW,315,4.7,7.4,72,0.00,,,0.00,WUHU21623XXSP,2013-01-24 03:20:00,
2013-01-23 21:25:00,-16.1,-22.4,30.35,NW,315,4.5,6.5,72,0.00,,,0.00,WUHU21623XXSP,2013-01-24 03:25:00,
2013-01-23 21:30:00,-16.1,-22.4,30.35,WNW,302,4.2,6.5,72,0.00,,,0.00,WUHU21623XXSP,2013-01-24 03:30:00,
2013-01-23 21:35:00,-15.9,-22.2,30.35,WNW,292,3.4,6.3,72,0.00,,,0.00,WUHU21623XXSP,2013-01-24 03:35:00,
2013-01-23 21:40:00,-15.9,-22.2,30.34,WNW,292,3.8,4.9,72,0.00,,,0.00,WUHU21623XXSP,2013-01-24 03:40:00,
2013-01-23 21:45:00,-16.1,-22.4,30.35,NW,312,4.3,6.3,72,0.00,,,0.00,WUHU21623XXSP,2013-01-24 03:45:00,
2013-01-23 21:50:00,-16.1,-22.4,30.35,NW,311,3.7,6.7,72,0.00,,,0.00,WUHU21623XXSP,2013-01-24 03:50:00,
2013-01-23 21:55:00,-16.1,-22.4,30.35,NW,315,3.4,6.7,72,0.00,,,0.00,WUHU21623XXSP,2013-01-24 03:55:00,
2013-01-23 22:00:00,-16.2,-22.5,30.36,NW,312,3.5,4.7,72,0.00,,,0.00,WUHU21623XXSP,2013-01-24 04:00:00,
2013-01-23 22:05:00,-16.1,-22.1,30.37,WNW,296,3.6,5.6,73,0.00,,,0.00,WUHU21623XXSP,2013-01-24 04:05:00,
2013-01-23 22:10:00,-16.4,-22.4,30.37,WNW,292,3.4,5.6,73,0.00,,,0.00,WUHU21623XXSP,2013-01-24 04:10:00,
2013-01-23 22:15:00,-16.6,-22.6,30.37,NW,315,5.1,7.4,73,0.00,,,0.00,WUHU21623XXSP,2013-01-24 04:15:00,
2013-01-23 22:20:00,-16.1,-22.1,30.37,NW,315,5.1,7.4,73,0.00,,,0.00,WUHU21623XXSP,2013-01-24 04:20:00,
2013-01-23 22:25:00,-16.4,-22.7,30.37,WNW,292,3.8,6.9,72,0.00,,,0.00,WUHU21623XXSP,2013-01-24 04:25:00,
2013-01-23 22:30:00,-16.4,-22.9,30.38,WNW,292,3.2,6.9,71,0.00,,,0.00,WUHU21623XXSP,2013-01-24 04:30:00,
2013-01-23 22:35:00,-16.8,-23.3,30.38,WNW,292,4.0,5.8,71,0.00,,,0.00,WUHU21623XXSP,2013-01-24 04:35:00,
2013-01-23 22:40:00,-17.0,-23.5,30.38,NW,311,2.7,5.4,71,0.00,,,0.00,WUHU21623XXSP,2013-01-24 04:40:00,
2013-01-23 22:45:00,-17.0,-23.3,30.38,NW,315,5.1,5.1,72,0.00,,,0.00,WUHU21623XXSP,2013-01-24 04:45:00,
2013-01-23 22:50:00,-17.0,-23.5,30.39,NW,313,3.7,9.2,71,0.00,,,0.00,WUHU21623XXSP,2013-01-24 04:50:00,
2013-01-23 22:55:00,-17.1,-23.6,30.38,NW,315,2.7,9.2,71,0.00,,,0.00,WUHU21623XXSP,2013-01-24 04:55:00,
2013-01-23 23:00:00,-17.3,-23.5,30.38,NNW,337,2.6,6.5,72,0.00,,,0.00,WUHU21623XXSP,2013-01-24 05:00:00,
2013-01-23 23:01:00,-17.3,-23.5,30.38,NNW,337,2.4,6.5,72,0.00,,,0.00,WUHU21623XXSP,2013-01-24 05:01:00,
2013-01-23 23:02:00,-17.1,-23.4,30.38,NNW,337,4.0,6.5,72,0.00,,,0.00,WUHU21623XXSP,2013-01-24 05:02:00,
2013-01-23 23:07:00,-17.3,-23.5,30.39,NNW,337,3.1,4.5,72,0.00,,,0.00,WUHU21623XXSP,2013-01-24 05:07:00,
2013-01-23 23:12:00,-17.7,-24.2,30.39,NW,315,3.8,4.7,71,0.00,,,0.00,WUHU21623XXSP,2013-01-24 05:12:00,
2013-01-23 23:17:00,-17.7,-24.2,30.39,NW,315,3.0,4.7,71,0.00,,,0.00,WUHU21623XXSP,2013-01-24 05:17:00,
2013-01-23 23:22:00,-17.5,-23.7,30.39,NNW,337,4.0,4.5,72,0.00,,,0.00,WUHU21623XXSP,2013-01-24 05:22:00,
2013-01-23 23:27:00,-17.7,-24.2,30.39,NW,315,3.4,4.5,71,0.00,,,0.00,WUHU21623XXSP,2013-01-24 05:27:00,
2013-01-23 23:32:00,-17.7,-24.2,30.39,NW,315,3.4,4.3,71,0.00,,,0.00,WUHU21623XXSP,2013-01-24 05:32:00,
2013-01-23 23:37:00,-17.9,-24.4,30.39,NW,315,4.3,4.7,71,0.00,,,0.00,WUHU21623XXSP,2013-01-24 05:37:00,
2013-01-23 23:42:00,-17.9,-24.4,30.39,NW,315,4.5,5.1,71,0.00,,,0.00,WUHU21623XXSP,2013-01-24 05:42:00,
2013-01-23 23:47:00,-18.0,-24.5,30.39,NW,315,4.5,5.4,71,0.00,,,0.00,WUHU21623XXSP,2013-01-24 05:47:00,
2013-01-23 23:52:00,-17.9,-24.1,30.39,NNW,337,3.3,5.4,72,0.00,,,0.00,WUHU21623XXSP,2013-01-24 05:52:00,
2013-01-23 23:57:00,-18.0,-24.5,30.40,NNW,334,3.7,4.7,71,0.00,,,0.00,WUHU21623XXSP,2013-01-24 05:57:00,